Time;durP1;ratioP1;P1;durP2;ratioP2;P2;SDS_P1;SDS_P2;PMS_P1;PMS_P2;Temp;Humidity;BMP_temperature;BMP_pressure;BME280_temperature;BME280_humidity;BME280_pressure;Samples;Min_cycle;Max_cycle;Signal;HPM_P1;HPM_P2
2024/01/07 00:01:02;;;;;;;21.17;12.52;;;;;;;-1.51;96.34;99446.88;5076028;28;20017;-82
2024/01/07 00:03:27;;;;;;;21.98;12.65;;;;;;;-1.47;95.82;99463.91;5076096;28;20020;-82
2024/01/07 00:05:52;;;;;;;25.23;13.48;;;;;;;-1.57;96.04;99436.66;5075885;28;20115;-82
2024/01/07 00:08:18;;;;;;;22.35;11.60;;;;;;;-1.48;95.30;99469.84;5076195;28;20036;-82
2024/01/07 00:10:43;;;;;;;18.58;11.52;;;;;;;-1.83;95.04;99413.69;5076206;28;20147;-82
2024/01/07 00:13:09;;;;;;;24.40;11.10;;;;;;;-1.61;95.46;99455.38;5076510;28;20469;-82
2024/01/07 00:15:34;;;;;;;23.90;11.68;;;;;;;-1.77;94.91;99424.75;5077425;28;20028;-82
2024/01/07 00:17:59;;;;;;;25.13;12.63;;;;;;;-1.77;95.09;99432.44;5076057;28;20024;-82
2024/01/07 00:20:25;;;;;;;19.50;10.50;;;;;;;-1.93;94.47;99422.22;5074985;28;20017;-82
2024/01/07 00:22:50;;;;;;;20.10;10.80;;;;;;;-1.83;94.50;99439.22;5075892;28;20020;-81
2024/01/07 00:25:15;;;;;;;31.63;12.80;;;;;;;-1.63;95.04;99452.00;5075680;28;20031;-82
2024/01/07 00:27:41;;;;;;;23.77;11.38;;;;;;;-1.73;94.63;99442.63;5074361;28;20070;-81
2024/01/07 00:30:07;;;;;;;20.00;10.65;;;;;;;-1.70;94.04;99457.94;5075562;28;20024;-82
2024/01/07 00:32:32;;;;;;;20.98;10.57;;;;;;;-1.70;93.44;99445.16;5075642;28;20025;-82
2024/01/07 00:34:57;;;;;;;20.10;12.52;;;;;;;-1.82;93.52;99423.88;5075431;28;20020;-82
2024/01/07 00:37:23;;;;;;;28.20;14.68;;;;;;;-1.84;93.22;99417.94;5075571;28;20028;-82
2024/01/07 00:39:48;;;;;;;22.98;12.13;;;;;;;-1.75;93.61;99440.06;5075586;28;20460;-82
2024/01/07 00:42:13;;;;;;;22.15;11.55;;;;;;;-1.64;92.79;99461.34;5075212;28;20210;-82
2024/01/07 00:44:39;;;;;;;19.98;10.43;;;;;;;-1.91;92.47;99410.28;5074313;28;20024;-81
2024/01/07 00:47:04;;;;;;;25.05;11.85;;;;;;;-1.65;92.81;99458.78;5073674;28;20020;-82
2024/01/07 00:49:30;;;;;;;25.55;11.98;;;;;;;-1.77;92.86;99427.31;5074051;28;20024;-82
2024/01/07 00:51:56;;;;;;;23.75;11.60;;;;;;;-1.69;92.41;99442.59;5075118;28;20356;-82
2024/01/07 00:54:21;;;;;;;20.40;11.57;;;;;;;-1.66;92.56;99451.97;5075191;28;20028;-82
2024/01/07 00:56:46;;;;;;;18.75;10.73;;;;;;;-1.80;91.66;99431.56;5072359;28;20175;-82
2024/01/07 00:59:12;;;;;;;20.55;10.45;;;;;;;-1.63;91.68;99452.00;5072238;28;20044;-82
2024/01/07 01:01:37;;;;;;;24.80;11.68;;;;;;;-1.70;91.40;99434.97;5055689;28;20037;-82
2024/01/07 01:04:03;;;;;;;19.73;10.80;;;;;;;-1.70;90.89;99442.63;5072179;28;20574;-82
2024/01/07 01:06:28;;;;;;;20.90;10.75;;;;;;;-1.63;91.01;99468.16;5072291;28;20174;-82
2024/01/07 01:08:54;;;;;;;18.10;9.82;;;;;;;-1.63;90.62;99485.19;5055344;28;20542;-82
2024/01/07 01:11:19;;;;;;;21.23;11.05;;;;;;;-1.86;90.15;99451.97;5072463;28;20028;-82
2024/01/07 01:13:44;;;;;;;49.50;23.20;;;;;;;-1.80;89.90;99474.97;5072304;28;20032;-82
2024/01/07 01:16:10;;;;;;;21.10;11.57;;;;;;;-2.05;89.21;99440.91;5072182;28;20032;-82
2024/01/07 01:18:35;;;;;;;21.45;10.50;;;;;;;-1.98;89.81;99465.59;5072166;28;20025;-82
2024/01/07 01:21:01;;;;;;;19.77;10.38;;;;;;;-2.16;89.78;99438.34;5072006;28;20035;-82
2024/01/07 01:23:26;;;;;;;23.77;11.75;;;;;;;-1.94;90.19;99474.09;5072075;28;20032;-82
2024/01/07 01:25:51;;;;;;;20.15;11.05;;;;;;;-2.06;90.92;99463.03;5072090;28;20036;-82
2024/01/07 01:28:17;;;;;;;22.08;11.60;;;;;;;-1.90;90.52;99491.97;5071685;28;20127;-82
2024/01/07 01:30:42;;;;;;;29.02;14.40;;;;;;;-1.96;90.58;99478.34;5072353;28;20108;-82
2024/01/07 01:33:08;;;;;;;21.92;12.25;;;;;;;-2.13;90.13;99458.75;5055218;28;20024;-82
2024/01/07 01:35:33;;;;;;;22.65;12.40;;;;;;;-1.79;89.99;99503.03;5074489;28;20033;-82
2024/01/07 01:37:58;;;;;;;22.52;12.15;;;;;;;-1.92;89.86;99487.72;5074267;28;20020;-82
2024/01/07 01:40:24;;;;;;;19.60;10.90;;;;;;;-2.07;89.79;99460.47;5074450;28;20577;-82
2024/01/07 01:42:49;;;;;;;25.23;12.32;;;;;;;-2.02;89.76;99458.78;5074332;28;20016;-82
2024/01/07 01:45:15;;;;;;;20.02;10.80;;;;;;;-2.08;88.96;99467.28;5074062;28;20143;-82
2024/01/07 01:47:41;;;;;;;21.77;12.27;;;;;;;-1.86;89.67;99486.00;5074166;28;20021;-82
2024/01/07 01:50:07;;;;;;;20.83;11.55;;;;;;;-1.86;89.27;99491.13;5074026;28;20020;-82
2024/01/07 01:52:32;;;;;;;19.58;11.30;;;;;;;-2.10;89.21;99466.44;5073829;28;20103;-82
2024/01/07 01:54:59;;;;;;;20.05;11.27;;;;;;;-2.15;89.35;99455.38;5072623;28;20047;-82
2024/01/07 01:57:32;;;;;;;23.73;11.55;;;;;;;-2.01;88.68;99483.47;5072431;28;20028;-82
2024/01/07 02:00:02;;;;;;;18.48;10.88;;;;;;;-2.25;88.84;99440.88;5072057;28;20021;-82
2024/01/07 02:02:29;;;;;;;19.98;10.63;;;;;;;-2.20;88.92;99451.09;5073902;28;20447;-82
2024/01/07 02:04:55;;;;;;;21.90;11.38;;;;;;;-2.23;88.85;99448.53;5073383;28;20482;-82
2024/01/07 02:07:20;;;;;;;17.27;10.30;;;;;;;-2.28;89.30;99458.72;5073595;28;20016;-82
2024/01/07 02:09:46;;;;;;;21.30;11.25;;;;;;;-2.29;89.58;99451.94;5073841;28;20017;-82
2024/01/07 02:12:11;;;;;;;20.40;11.52;;;;;;;-2.03;88.99;99492.78;5073476;28;20017;-82
2024/01/07 02:14:38;;;;;;;19.48;10.48;;;;;;;-2.24;89.17;99467.25;5072425;28;20024;-82
2024/01/07 02:17:03;;;;;;;18.58;11.02;;;;;;;-2.30;89.18;99451.09;5073455;28;20031;-82
2024/01/07 02:19:28;;;;;;;23.48;11.60;;;;;;;-2.05;88.68;99485.16;5073908;28;20020;-82
2024/01/07 02:21:54;;;;;;;19.35;10.88;;;;;;;-2.05;88.97;99492.81;5073581;28;20624;-82
2024/01/07 02:24:20;;;;;;;20.50;11.60;;;;;;;-2.10;88.36;99502.16;5073344;28;20028;-82
2024/01/07 02:26:45;;;;;;;19.42;11.13;;;;;;;-2.27;88.36;99461.31;5072145;28;20093;-82
2024/01/07 02:29:11;;;;;;;17.92;10.52;;;;;;;-2.05;88.20;99515.78;5071958;28;20025;-82
2024/01/07 02:31:36;;;;;;;19.42;10.43;;;;;;;-2.33;87.94;99476.56;5073403;28;20103;-82
2024/01/07 02:34:01;;;;;;;21.95;11.63;;;;;;;-2.15;88.31;99505.53;5073117;28;20036;-82
2024/01/07 02:36:27;;;;;;;18.17;11.32;;;;;;;-2.14;88.77;99510.66;5071978;28;20107;-82
2024/01/07 02:38:52;;;;;;;17.63;10.48;;;;;;;-2.22;88.57;99504.69;5073494;28;20107;-83
2024/01/07 02:41:19;;;;;;;20.13;12.05;;;;;;;-2.17;88.94;99508.09;5073061;28;20121;-82
2024/01/07 02:43:45;;;;;;;20.65;11.27;;;;;;;-2.21;88.49;99516.56;5073102;28;20028;-83
2024/01/07 02:46:10;;;;;;;20.63;11.70;;;;;;;-2.29;89.16;99505.50;5072898;28;20070;-83
2024/01/07 02:48:36;;;;;;;19.00;10.30;;;;;;;-2.33;89.49;99502.09;5072939;28;20103;-83
2024/01/07 02:51:03;;;;;;;17.60;10.38;;;;;;;-2.45;89.79;99476.53;5073166;28;20032;-82
2024/01/07 02:53:28;;;;;;;17.23;10.80;;;;;;;-2.25;89.14;99509.75;5090396;28;20060;-82
2024/01/07 02:55:54;;;;;;;16.77;9.98;;;;;;;-2.44;89.11;99480.81;5090839;28;20634;-83
2024/01/07 02:58:19;;;;;;;18.88;10.73;;;;;;;-2.42;89.00;99483.34;5090257;28;20039;-83
2024/01/07 03:00:45;;;;;;;18.00;10.80;;;;;;;-2.48;88.75;99489.31;5090563;28;20506;-83
2024/01/07 03:03:10;;;;;;;21.45;11.25;;;;;;;-2.28;88.92;99523.34;5090370;28;20115;-82
2024/01/07 03:05:35;;;;;;;21.25;11.13;;;;;;;-2.51;89.13;99496.94;5090155;28;20044;-83
2024/01/07 03:08:01;;;;;;;14.25;9.90;;;;;;;-2.52;88.56;99487.59;5090113;28;20032;-82
2024/01/07 03:10:26;;;;;;;20.75;10.85;;;;;;;-2.43;89.33;99485.06;5090179;28;20024;-83
2024/01/07 03:12:52;;;;;;;18.65;10.77;;;;;;;-2.34;89.12;99484.22;5089800;28;20036;-82
2024/01/07 03:15:17;;;;;;;17.33;10.52;;;;;;;-2.27;88.99;99512.31;5090080;28;20031;-83
2024/01/07 03:17:43;;;;;;;20.50;11.40;;;;;;;-2.39;89.03;99486.78;5090294;28;20032;-83
2024/01/07 03:20:09;;;;;;;17.52;10.95;;;;;;;-2.25;88.72;99517.41;5089981;28;20154;-83
2024/01/07 03:22:34;;;;;;;20.90;10.50;;;;;;;-2.33;88.44;99519.09;5090185;28;20028;-83
2024/01/07 03:25:00;;;;;;;18.95;11.00;;;;;;;-2.29;88.78;99523.34;5076382;28;20035;-83
2024/01/07 03:27:25;;;;;;;15.18;9.52;;;;;;;-2.33;88.80;99519.09;5072266;28;20012;-83
2024/01/07 03:29:51;;;;;;;18.58;11.00;;;;;;;-2.40;88.40;99520.78;5072632;28;20031;-82
2024/01/07 03:32:17;;;;;;;24.23;13.10;;;;;;;-2.43;88.57;99519.91;5070980;28;20112;-82
2024/01/07 03:34:43;;;;;;;34.83;16.15;;;;;;;-2.54;88.79;99494.38;5072560;28;20070;-82
2024/01/07 03:37:08;;;;;;;15.25;9.82;;;;;;;-2.32;88.57;99533.53;5072338;28;20032;-82
2024/01/07 03:39:34;;;;;;;18.52;10.48;;;;;;;-2.35;88.36;99541.19;5071261;28;20025;-82
2024/01/07 03:41:59;;;;;;;15.55;9.43;;;;;;;-2.52;87.78;99513.09;5072588;28;20032;-82
2024/01/07 03:44:25;;;;;;;18.73;9.45;;;;;;;-2.61;87.93;99502.84;5072284;28;20020;-83
2024/01/07 03:46:51;;;;;;;18.05;10.95;;;;;;;-2.63;88.00;99494.34;5072621;28;20066;-83
2024/01/07 03:49:17;;;;;;;14.73;9.30;;;;;;;-2.38;88.03;99536.94;5072147;28;20021;-83
2024/01/07 03:51:43;;;;;;;17.80;9.25;;;;;;;-2.50;87.83;99513.94;5072410;28;20029;-82
2024/01/07 03:54:09;;;;;;;14.15;9.45;;;;;;;-2.48;87.83;99519.06;5072141;28;20378;-83
2024/01/07 03:56:34;;;;;;;15.95;9.45;;;;;;;-2.55;88.45;99497.78;5071084;28;20032;-82
2024/01/07 03:58:59;;;;;;;19.30;11.10;;;;;;;-2.31;88.55;99543.78;5089697;28;20522;-83
2024/01/07 04:01:25;;;;;;;16.95;10.15;;;;;;;-2.41;89.13;99516.50;5072605;28;20032;-83
2024/01/07 04:03:50;;;;;;;16.30;9.40;;;;;;;-2.42;88.65;99512.25;5072785;28;20036;-82
2024/01/07 04:06:16;;;;;;;16.75;10.05;;;;;;;-2.46;88.59;99518.19;5089484;28;20044;-83
2024/01/07 04:08:41;;;;;;;18.48;10.93;;;;;;;-2.28;88.47;99551.41;5072748;28;20035;-83
2024/01/07 04:11:07;;;;;;;19.38;9.80;;;;;;;-2.21;88.72;99571.84;5089632;28;20028;-83
2024/01/07 04:13:32;;;;;;;16.67;9.82;;;;;;;-2.30;89.18;99565.03;5089746;28;20531;-83
2024/01/07 04:15:57;;;;;;;14.77;9.52;;;;;;;-2.59;88.41;99535.16;5089742;28;20024;-83
2024/01/07 04:18:23;;;;;;;16.77;10.23;;;;;;;-2.46;88.65;99563.25;5072613;28;20426;-83
2024/01/07 04:20:48;;;;;;;15.90;9.30;;;;;;;-2.62;88.87;99532.56;5089644;28;20024;-83
2024/01/07 04:23:14;;;;;;;16.20;9.07;;;;;;;-2.41;89.14;99559.88;5091315;28;20062;-82
2024/01/07 04:25:40;;;;;;;14.75;9.57;;;;;;;-2.32;88.72;99577.78;5093388;28;20036;-83
2024/01/07 04:28:06;;;;;;;14.38;8.63;;;;;;;-2.53;88.54;99552.16;5093165;28;20024;-83
2024/01/07 04:30:31;;;;;;;13.95;9.90;;;;;;;-2.46;89.02;99559.00;5079337;28;20028;-83
2024/01/07 04:32:57;;;;;;;13.27;8.50;;;;;;;-2.52;88.35;99544.53;5075631;28;20024;-83
2024/01/07 04:35:22;;;;;;;14.63;9.57;;;;;;;-2.35;88.61;99571.81;5075378;28;20060;-82
2024/01/07 04:37:48;;;;;;;12.63;8.93;;;;;;;-2.53;87.79;99568.34;5075532;28;20082;-83
2024/01/07 04:40:14;;;;;;;15.93;9.63;;;;;;;-2.53;88.36;99565.78;5075302;28;20021;-83
2024/01/07 04:42:39;;;;;;;11.43;8.35;;;;;;;-2.58;88.46;99564.03;5074111;28;20023;-83
2024/01/07 04:45:05;;;;;;;11.75;8.07;;;;;;;-2.75;88.24;99556.31;5075416;28;20062;-83
2024/01/07 04:47:33;;;;;;;15.73;8.80;;;;;;;-2.59;88.10;99581.03;5075065;28;20016;-82
2024/01/07 04:49:59;;;;;;;13.18;8.95;;;;;;;-2.72;88.67;99542.72;5074158;28;20422;-83
2024/01/07 04:52:25;;;;;;;14.23;9.52;;;;;;;-2.59;88.84;99564.91;5075218;28;20028;-82
2024/01/07 04:54:51;;;;;;;18.90;9.73;;;;;;;-2.37;88.53;99596.44;5075414;28;20649;-82
2024/01/07 04:57:17;;;;;;;10.52;7.85;;;;;;;-2.33;88.33;99598.16;5074958;28;20048;-82
2024/01/07 04:59:43;;;;;;;14.48;8.60;;;;;;;-2.27;87.35;99609.25;5075262;28;20103;-82
2024/01/07 05:02:08;;;;;;;13.98;9.23;;;;;;;-2.65;87.30;99563.19;5074555;28;20026;-82
2024/01/07 05:04:35;;;;;;;18.17;9.15;;;;;;;-2.32;87.19;99602.41;5073275;28;20035;-83
2024/01/07 05:07:01;;;;;;;13.40;9.02;;;;;;;-2.44;87.72;99577.72;5074964;28;20059;-82
2024/01/07 05:09:26;;;;;;;14.57;8.60;;;;;;;-2.31;88.04;99599.88;5074535;28;20051;-82
2024/01/07 05:11:51;;;;;;;14.00;8.43;;;;;;;-2.30;87.50;99605.84;5075024;28;20024;-83
2024/01/07 05:14:17;;;;;;;14.50;8.38;;;;;;;-2.46;87.69;99601.50;5073417;28;20104;-82
2024/01/07 05:16:42;;;;;;;10.30;7.57;;;;;;;-2.39;87.54;99616.00;5073561;28;20036;-83
2024/01/07 05:19:08;;;;;;;11.30;7.60;;;;;;;-2.51;87.50;99620.19;5074464;28;20099;-83
2024/01/07 05:21:33;;;;;;;13.07;7.88;;;;;;;-2.58;87.13;99620.97;5074504;28;20107;-83
2024/01/07 05:23:58;;;;;;;13.02;8.60;;;;;;;-2.67;87.31;99595.44;5074335;28;20025;-83
2024/01/07 05:26:24;;;;;;;11.88;7.75;;;;;;;-2.55;87.33;99621.00;5074387;28;20028;-83
2024/01/07 05:28:49;;;;;;;11.43;8.32;;;;;;;-2.62;87.68;99632.00;5074573;28;20028;-83
2024/01/07 05:31:18;;;;;;;11.60;8.65;;;;;;;-2.70;87.53;99603.06;5074083;28;20169;-82
2024/01/07 05:33:44;;;;;;;10.80;7.93;;;;;;;-2.53;87.96;99623.56;5074066;28;20098;-82
2024/01/07 05:36:11;;;;;;;12.68;7.97;;;;;;;-2.56;88.15;99626.13;5074124;28;20016;-82
2024/01/07 05:38:36;;;;;;;12.95;7.43;;;;;;;-2.63;87.32;99643.06;5074428;28;20154;-82
2024/01/07 05:41:02;;;;;;;11.32;7.25;;;;;;;-2.70;87.14;99628.56;5074730;28;20099;-82
2024/01/07 05:43:27;;;;;;;12.82;7.00;;;;;;;-2.71;87.24;99629.41;5073708;28;20489;-82
2024/01/07 05:45:53;;;;;;;17.00;9.40;;;;;;;-2.84;87.70;99610.63;5074287;28;20025;-83
2024/01/07 05:48:20;;;;;;;14.15;9.45;;;;;;;-2.90;88.63;99607.19;5074031;28;20031;-82
2024/01/07 05:50:46;;;;;;;12.90;9.50;;;;;;;-2.74;88.90;99633.63;5073949;28;20367;-82
2024/01/07 05:53:11;;;;;;;14.23;9.15;;;;;;;-2.88;88.44;99652.22;5072604;28;20124;-82
2024/01/07 05:55:37;;;;;;;12.73;8.77;;;;;;;-3.09;88.56;99613.84;5074078;28;20032;-82
2024/01/07 05:58:02;;;;;;;12.20;8.88;;;;;;;-3.07;88.34;99620.66;5074046;28;20107;-82
2024/01/07 06:00:27;;;;;;;15.23;8.60;;;;;;;-3.11;88.54;99616.41;5073747;28;20034;-82
2024/01/07 06:02:53;;;;;;;10.82;8.45;;;;;;;-3.14;88.40;99621.44;5072549;28;20020;-82
2024/01/07 06:05:18;;;;;;;14.02;8.65;;;;;;;-2.94;88.38;99644.56;5073715;28;20091;-83
2024/01/07 06:07:44;;;;;;;14.30;9.32;;;;;;;-2.89;88.54;99660.72;5073605;28;20100;-82
2024/01/07 06:10:09;;;;;;;15.75;10.25;;;;;;;-2.96;88.04;99640.28;5072586;28;20024;-83
2024/01/07 06:12:34;;;;;;;13.57;8.50;;;;;;;-3.07;87.85;99630.88;5073610;28;20032;-83
2024/01/07 06:15:00;;;;;;;11.40;8.57;;;;;;;-3.03;87.97;99639.38;5073759;28;20118;-81
2024/01/07 06:17:25;;;;;;;13.27;8.88;;;;;;;-3.12;88.01;99631.66;5073733;28;20021;-81
2024/01/07 06:19:50;;;;;;;12.52;7.93;;;;;;;-2.93;88.02;99674.28;5072305;28;20024;-82
2024/01/07 06:22:16;;;;;;;11.82;7.93;;;;;;;-3.21;87.89;99639.22;5071778;28;20024;-82
2024/01/07 06:24:41;;;;;;;11.27;8.23;;;;;;;-3.24;87.67;99639.19;5073562;28;20044;-82
2024/01/07 06:27:07;;;;;;;12.57;8.65;;;;;;;-3.20;87.79;99646.00;5072107;28;20451;-83
2024/01/07 06:29:33;;;;;;;11.85;8.02;;;;;;;-3.09;88.25;99663.09;5071944;28;20031;-83
2024/01/07 06:31:59;;;;;;;9.82;7.68;;;;;;;-3.20;87.85;99658.75;5073357;28;20020;-83
2024/01/07 06:34:24;;;;;;;13.70;9.10;;;;;;;-3.10;88.18;99675.84;5073104;28;20468;-83
2024/01/07 06:36:49;;;;;;;10.95;7.88;;;;;;;-3.20;87.89;99652.00;5073347;28;20418;-83
2024/01/07 06:39:15;;;;;;;12.23;8.32;;;;;;;-3.02;88.01;99679.31;5073182;28;20031;-83
2024/01/07 06:41:40;;;;;;;13.48;7.68;;;;;;;-3.29;87.47;99655.31;5071912;28;20086;-83
2024/01/07 06:44:06;;;;;;;11.15;8.18;;;;;;;-3.32;87.59;99662.06;5073031;28;20035;-83
2024/01/07 06:46:31;;;;;;;10.55;7.88;;;;;;;-3.12;87.50;99701.31;5072898;28;20462;-84
2024/01/07 06:48:56;;;;;;;11.18;7.80;;;;;;;-3.34;87.06;99682.41;5071789;28;20077;-83
2024/01/07 06:51:22;;;;;;;12.82;9.73;;;;;;;-3.23;86.92;99705.44;5072540;28;20070;-83
2024/01/07 06:53:47;;;;;;;13.02;8.32;;;;;;;-3.32;86.40;99706.19;5071757;28;20367;-83
2024/01/07 06:56:13;;;;;;;15.18;9.68;;;;;;;-3.37;86.17;99704.44;5073035;28;20059;-83
2024/01/07 06:58:38;;;;;;;15.88;11.35;;;;;;;-3.57;86.36;99676.22;5072661;28;20452;-83
2024/01/07 07:01:06;;;;;;;15.65;10.95;;;;;;;-3.33;86.45;99708.72;5072962;28;20024;-83
2024/01/07 07:03:32;;;;;;;9.82;7.07;;;;;;;-3.51;86.57;99681.38;5072548;28;20021;-83
2024/01/07 07:05:57;;;;;;;10.73;7.57;;;;;;;-3.28;86.14;99718.13;5072941;28;20536;-83
2024/01/07 07:08:22;;;;;;;11.55;8.25;;;;;;;-3.30;86.45;99714.69;5071286;28;20028;-84
2024/01/07 07:10:48;;;;;;;9.80;6.53;;;;;;;-3.32;85.70;99715.53;5072898;28;20603;-83
2024/01/07 07:13:14;;;;;;;11.10;6.68;;;;;;;-3.26;85.34;99721.53;5071513;28;20024;-83
2024/01/07 07:15:40;;;;;;;9.13;6.85;;;;;;;-3.41;85.64;99693.38;5071237;28;20025;-84
2024/01/07 07:18:05;;;;;;;98.22;52.80;;;;;;;-3.41;84.90;99695.94;5072815;28;20025;-83
2024/01/07 07:20:31;;;;;;;56.25;29.02;;;;;;;-3.48;84.98;99691.59;5072530;28;20032;-83
2024/01/07 07:22:57;;;;;;;59.58;30.67;;;;;;;-3.35;84.71;99720.59;5071911;28;20024;-84
2024/01/07 07:25:22;;;;;;;67.70;35.63;;;;;;;-3.43;84.88;99710.31;5072747;28;20060;-84
2024/01/07 07:27:47;;;;;;;67.40;37.25;;;;;;;-3.49;85.01;99717.06;5073945;28;20471;-83
2024/01/07 07:30:13;;;;;;;38.70;21.42;;;;;;;-3.52;84.33;99728.06;5074320;28;20028;-84
2024/01/07 07:32:41;;;;;;;29.88;17.35;;;;;;;-3.60;84.50;99694.88;5074252;28;20061;-83
2024/01/07 07:35:07;;;;;;;66.53;35.45;;;;;;;-3.65;84.65;99696.50;5072388;28;20463;-84
2024/01/07 07:37:33;;;;;;;85.78;43.17;;;;;;;-3.36;84.44;99757.94;5073997;28;20029;-83
2024/01/07 07:39:58;;;;;;;220.68;106.40;;;;;;;-3.66;84.43;99707.53;5071407;28;20168;-84
2024/01/07 07:42:23;;;;;;;67.63;30.90;;;;;;;-3.54;84.45;99730.59;5071501;28;20686;-83
2024/01/07 07:44:49;;;;;;;121.68;51.85;;;;;;;-3.31;84.77;99747.81;5074058;28;20038;-84
2024/01/07 07:47:14;;;;;;;174.60;81.03;;;;;;;-3.45;85.13;99714.56;5073232;28;20025;-84
2024/01/07 07:49:40;;;;;;;19.35;10.80;;;;;;;-3.27;84.87;99731.72;5071025;28;20031;-83
2024/01/07 07:52:08;;;;;;;15.13;9.98;;;;;;;-3.20;84.62;99750.44;5071169;28;20028;-83
2024/01/07 07:54:34;;;;;;;12.48;8.05;;;;;;;-3.29;85.06;99728.28;5071947;28;20473;-83
2024/01/07 07:56:59;;;;;;;21.30;13.32;;;;;;;-3.17;85.49;99748.78;5072563;28;20098;-83
2024/01/07 07:59:25;;;;;;;20.77;15.43;;;;;;;-3.24;86.01;99767.41;5076049;28;20028;-83
2024/01/07 08:01:50;;;;;;;21.98;14.93;;;;;;;-3.15;87.31;99756.47;5076416;28;20478;-83
2024/01/07 08:04:16;;;;;;;26.40;17.40;;;;;;;-3.34;87.29;99727.38;5074785;28;20063;-83
2024/01/07 08:06:42;;;;;;;15.38;11.93;;;;;;;-3.07;87.98;99771.00;5074527;28;20044;-83
2024/01/07 08:09:08;;;;;;;16.70;11.85;;;;;;;-3.28;88.50;99743.59;5074818;28;20024;-86
2024/01/07 08:11:34;;;;;;;13.05;10.40;;;;;;;-3.27;88.27;99760.59;5076090;28;20364;-83
2024/01/07 08:14:01;;;;;;;17.33;10.88;;;;;;;-3.15;87.96;99780.25;5074575;28;20024;-82
2024/01/07 08:16:26;;;;;;;16.65;11.20;;;;;;;-3.16;88.39;99783.63;5075881;28;20074;-82
2024/01/07 08:18:52;;;;;;;14.48;10.05;;;;;;;-3.08;88.43;99782.00;5076103;28;20594;-83
2024/01/07 08:21:17;;;;;;;16.40;10.35;;;;;;;-3.14;88.38;99753.94;5076048;28;20035;-83
2024/01/07 08:23:43;;;;;;;17.42;11.32;;;;;;;-2.98;88.09;99797.41;5074631;28;20032;-83
2024/01/07 08:26:08;;;;;;;19.05;11.82;;;;;;;-3.10;87.47;99788.78;5075679;28;20036;-83
2024/01/07 08:28:34;;;;;;;46.03;27.05;;;;;;;-3.10;87.02;99793.88;5075805;28;20480;-83
2024/01/07 08:30:59;;;;;;;28.50;17.15;;;;;;;-3.23;86.33;99781.00;5075722;28;20027;-83
2024/01/07 08:33:25;;;;;;;122.90;56.60;;;;;;;-3.32;86.45;99777.50;5075756;28;20033;-83
2024/01/07 08:35:50;;;;;;;116.43;52.30;;;;;;;-3.29;85.94;99784.31;5074332;28;20021;-83
2024/01/07 08:38:15;;;;;;;127.28;56.38;;;;;;;-3.34;85.87;99755.41;5074468;28;20031;-83
2024/01/07 08:40:41;;;;;;;61.70;33.35;;;;;;;-3.15;85.68;99787.03;5075643;28;20028;-83
2024/01/07 08:43:06;;;;;;;112.05;54.58;;;;;;;-3.09;85.60;99789.63;5074190;28;20065;-83
2024/01/07 08:45:32;;;;;;;41.50;23.00;;;;;;;-3.15;85.80;99808.28;5074920;28;20025;-83
2024/01/07 08:47:57;;;;;;;17.55;11.30;;;;;;;-3.33;84.59;99803.81;5075333;28;20017;-83
2024/01/07 08:50:22;;;;;;;35.35;20.98;;;;;;;-3.37;84.98;99809.72;5075342;28;20051;-83
2024/01/07 08:52:48;;;;;;;41.90;22.70;;;;;;;-3.59;84.76;99765.28;5075332;28;20032;-82
2024/01/07 08:55:13;;;;;;;27.73;14.40;;;;;;;-3.31;84.70;99821.66;5075309;28;20025;-82
2024/01/07 08:57:39;;;;;;;42.17;22.65;;;;;;;-3.34;84.89;99809.72;5074956;28;20028;-82
2024/01/07 09:00:07;;;;;;;27.20;16.85;;;;;;;-3.63;83.75;99778.81;5073961;28;20039;-82
2024/01/07 09:02:33;;;;;;;17.27;10.90;;;;;;;-3.48;83.86;99805.31;5074945;28;20021;-82
2024/01/07 09:04:59;;;;;;;42.72;27.90;;;;;;;-3.34;83.60;99825.00;5073481;28;20836;-82
2024/01/07 09:07:24;;;;;;;24.75;14.02;;;;;;;-3.45;82.80;99829.13;5075281;28;20050;-82
2024/01/07 09:09:50;;;;;;;12.50;8.25;;;;;;;-3.53;82.29;99829.03;5072597;28;20024;-82
2024/01/07 09:12:15;;;;;;;11.75;6.43;;;;;;;-3.67;82.33;99816.94;5075417;28;20020;-83
2024/01/07 09:14:40;;;;;;;12.10;7.30;;;;;;;-3.95;82.02;99798.78;5075467;28;20074;-83
2024/01/07 09:17:06;;;;;;;76.93;27.70;;;;;;;-3.75;82.08;99832.09;5074301;28;20032;-83
2024/01/07 09:19:31;;;;;;;52.40;17.13;;;;;;;-3.79;82.36;99836.31;5066381;28;20033;-84
2024/01/07 09:21:57;;;;;;;46.20;16.35;;;;;;;-3.86;82.41;99823.50;5055561;28;20028;-84
2024/01/07 09:24:22;;;;;;;54.35;20.27;;;;;;;-3.97;81.95;99797.88;5054265;28;20116;-83
2024/01/07 09:26:51;;;;;;;44.40;16.75;;;;;;;-3.74;81.80;99858.44;5054596;28;20025;-82
2024/01/07 09:29:16;;;;;;;25.63;10.13;;;;;;;-3.93;81.29;99826.78;5053618;28;20029;-81
2024/01/07 09:31:41;;;;;;;38.78;12.82;;;;;;;-3.79;81.22;99845.66;5053285;28;20104;-80
2024/01/07 09:34:07;;;;;;;42.85;14.13;;;;;;;-4.02;80.99;99817.31;5053253;28;20029;-81
2024/01/07 09:36:33;;;;;;;37.45;12.10;;;;;;;-3.82;80.94;99848.16;5054950;28;20408;-81
2024/01/07 09:39:00;;;;;;;29.67;10.48;;;;;;;-3.86;80.33;99859.13;5054691;28;20044;-82
2024/01/07 09:41:25;;;;;;;29.27;11.25;;;;;;;-3.82;80.56;99841.38;5054035;28;20114;-85
2024/01/07 09:43:53;;;;;;;57.65;17.85;;;;;;;-3.70;80.33;99843.22;5053099;28;20468;-87
2024/01/07 09:46:20;;;;;;;37.63;12.00;;;;;;;-3.55;80.07;99860.38;5053431;28;20071;-85
2024/01/07 09:48:47;;;;;;;33.03;11.88;;;;;;;-3.68;79.98;99835.59;5036743;28;20139;-86
2024/01/07 09:51:13;;;;;;;59.67;18.63;;;;;;;-3.74;79.58;99815.19;5052112;28;20048;-86
2024/01/07 09:53:42;;;;;;;29.10;10.88;;;;;;;-3.50;78.95;99848.56;5051661;28;20033;-86
2024/01/07 09:56:36;;;;;;;23.67;9.50;;;;;;;-3.40;78.35;99859.75;5092094;28;20109;-87
2024/01/07 09:59:04;;;;;;;12.57;6.28;;;;;;;-3.49;77.55;99862.19;5051493;28;20408;-85
2024/01/07 10:01:31;;;;;;;16.65;7.97;;;;;;;-3.66;77.38;99824.63;5052324;28;20115;-85
2024/01/07 10:03:57;;;;;;;39.05;12.30;;;;;;;-3.48;76.92;99857.09;5051349;28;20037;-83
2024/01/07 10:06:29;;;;;;;13.60;7.40;;;;;;;-3.74;76.56;99828.75;5050725;28;20103;-82
2024/01/07 10:08:59;;;;;;;18.98;10.02;;;;;;;-3.73;76.43;99835.53;5051268;28;20049;-84
2024/01/07 10:11:25;;;;;;;68.97;19.33;;;;;;;-3.77;76.75;99833.78;5051398;28;20581;-85
2024/01/07 10:13:55;;;;;;;19.95;9.32;;;;;;;-3.87;76.15;99839.59;5050944;28;20045;-87
2024/01/07 10:16:20;;;;;;;32.15;12.95;;;;;;;-4.02;76.75;99814.78;5035140;28;20512;-84
2024/01/07 10:18:47;;;;;;;36.75;16.50;;;;;;;-3.89;77.01;99816.66;5050944;28;20048;-85
2024/01/07 10:21:13;;;;;;;34.80;12.75;;;;;;;-3.84;76.92;99843.00;5034992;28;20044;-83
2024/01/07 10:23:40;;;;;;;127.90;41.55;;;;;;;-3.85;77.37;99843.84;5048123;28;20527;-84
2024/01/07 10:26:09;;;;;;;211.85;68.55;;;;;;;-4.08;77.79;99794.34;5050935;28;20033;-83
2024/01/07 10:28:36;;;;;;;90.60;26.15;;;;;;;-3.80;77.58;99834.59;5011386;28;20037;-82
2024/01/07 10:31:03;;;;;;;79.63;22.70;;;;;;;-3.72;77.75;99849.13;5055813;28;20032;-82
2024/01/07 10:33:33;;;;;;;43.38;15.30;;;;;;;-3.64;77.81;99834.81;5070976;28;20115;-81
2024/01/07 10:36:05;;;;;;;117.82;34.78;;;;;;;-3.45;77.56;99856.28;5054448;28;20028;-80
2024/01/07 10:38:35;;;;;;;49.90;18.00;;;;;;;-3.51;77.21;99842.63;5067973;28;20464;-81
2024/01/07 10:41:01;;;;;;;42.30;20.85;;;;;;;-3.82;76.61;99799.78;5071728;28;20028;-81
2024/01/07 10:43:31;;;;;;;46.05;19.80;;;;;;;-3.54;77.01;99857.88;5073889;28;20035;-82
2024/01/07 10:46:08;;;;;;;36.72;15.80;;;;;;;-3.56;76.79;99867.19;5073054;28;20113;-86
2024/01/07 10:48:37;;;;;;;43.17;16.45;;;;;;;-3.62;76.99;99854.38;5038074;28;20500;-82
2024/01/07 10:51:07;;;;;;;54.58;22.65;;;;;;;-3.67;77.02;99842.41;5073204;28;20024;-81
2024/01/07 10:53:37;;;;;;;32.50;15.43;;;;;;;-3.73;76.73;99855.06;5073343;28;20026;-81
2024/01/07 10:56:05;;;;;;;95.30;29.40;;;;;;;-3.69;77.06;99865.31;5073275;28;20028;-81
2024/01/07 10:58:35;;;;;;;65.60;23.02;;;;;;;-3.83;76.66;99844.75;5075124;28;20036;-81
2024/01/07 11:01:03;;;;;;;28.17;13.73;;;;;;;-3.83;76.76;99823.53;5073121;28;20074;-81
2024/01/07 11:03:48;;;;;;;47.15;18.95;;;;;;;-3.62;76.31;99867.09;5072965;28;20016;-82
2024/01/07 11:06:40;;;;;;;27.17;12.65;;;;;;;-3.76;76.67;99860.94;5070082;28;20059;-82
2024/01/07 11:09:52;;;;;;;24.35;11.98;;;;;;;-3.78;76.66;99865.16;5054843;28;20369;-84
2024/01/07 11:12:20;;;;;;;41.47;15.40;;;;;;;-4.16;77.21;99773.03;5069964;28;20422;-87
2024/01/07 11:15:07;;;;;;;38.28;15.70;;;;;;;-3.66;76.70;99847.53;5096518;28;20035;-83